sensor_id;sensor_type;location;lat;lon;timestamp;pressure;altitude;pressure_sealevel;temperature;humidity
64243;BME280;50573;51.512;5.386;2023-04-27T00:03:29;76903.59;;;4.65;85.87
64243;BME280;50573;51.512;5.386;2023-04-27T00:13:33;76894.72;;;4.53;90.94
64243;BME280;50573;51.512;5.386;2023-04-27T00:23:37;76896.50;;;4.47;88.66
64243;BME280;50573;51.512;5.386;2023-04-27T00:33:40;76866.47;;;4.30;89.66
64243;BME280;50573;51.512;5.386;2023-04-27T00:43:45;76867.34;;;4.19;88.33
64243;BME280;50573;51.512;5.386;2023-04-27T00:53:48;76841.63;;;4.10;94.55
64243;BME280;50573;51.512;5.386;2023-04-27T01:03:55;76846.31;;;4.00;95.72
64243;BME280;50573;51.512;5.386;2023-04-27T01:14:02;76837.06;;;3.90;91.11
64243;BME280;50573;51.512;5.386;2023-04-27T01:24:08;76811.19;;;3.79;95.05
64243;BME280;50573;51.512;5.386;2023-04-27T01:34:11;76810.53;;;3.69;98.94
64243;BME280;50573;51.512;5.386;2023-04-27T01:44:16;76811.25;;;3.72;97.55
64243;BME280;50573;51.512;5.386;2023-04-27T01:54:19;76788.06;;;3.61;95.96
64243;BME280;50573;51.512;5.386;2023-04-27T02:04:24;76773.78;;;3.39;100.00
64243;BME280;50573;51.512;5.386;2023-04-27T02:14:27;76747.03;;;3.22;99.54
64243;BME280;50573;51.512;5.386;2023-04-27T02:24:34;76736.97;;;3.16;100.00
64243;BME280;50573;51.512;5.386;2023-04-27T02:34:37;76733.03;;;3.05;100.00
64243;BME280;50573;51.512;5.386;2023-04-27T02:44:41;76723.31;;;3.04;100.00
64243;BME280;50573;51.512;5.386;2023-04-27T02:54:45;76713.13;;;2.95;100.00
64243;BME280;50573;51.512;5.386;2023-04-27T03:04:52;76726.63;;;2.97;100.00
64243;BME280;50573;51.512;5.386;2023-04-27T03:14:56;76718.91;;;2.85;100.00
64243;BME280;50573;51.512;5.386;2023-04-27T03:25:01;76708.06;;;2.83;100.00
64243;BME280;50573;51.512;5.386;2023-04-27T03:35:06;76704.47;;;2.77;100.00
64243;BME280;50573;51.512;5.386;2023-04-27T03:45:11;76699.94;;;2.73;100.00
64243;BME280;50573;51.512;5.386;2023-04-27T03:55:17;76677.91;;;2.63;100.00
64243;BME280;50573;51.512;5.386;2023-04-27T04:05:22;76670.44;;;2.47;100.00
64243;BME280;50573;51.512;5.386;2023-04-27T04:15:25;76659.81;;;2.40;100.00
64243;BME280;50573;51.512;5.386;2023-04-27T04:25:30;76662.31;;;2.38;100.00
64243;BME280;50573;51.512;5.386;2023-04-27T04:35:33;76648.41;;;2.37;100.00
64243;BME280;50573;51.512;5.386;2023-04-27T04:45:40;76664.38;;;2.44;100.00
64243;BME280;50573;51.512;5.386;2023-04-27T04:55:46;76675.72;;;2.54;100.00
64243;BME280;50573;51.512;5.386;2023-04-27T05:05:50;76701.09;;;2.74;100.00
64243;BME280;50573;51.512;5.386;2023-04-27T05:15:53;76724.94;;;2.96;100.00
64243;BME280;50573;51.512;5.386;2023-04-27T05:25:58;76761.84;;;3.28;100.00
64243;BME280;50573;51.512;5.386;2023-04-27T05:36:01;76794.41;;;3.59;100.00
64243;BME280;50573;51.512;5.386;2023-04-27T05:46:06;76835.53;;;3.91;100.00
64243;BME280;50573;51.512;5.386;2023-04-27T05:56:09;76869.31;;;4.33;98.01
64243;BME280;50573;51.512;5.386;2023-04-27T06:06:14;76925.91;;;4.87;95.06
64243;BME280;50573;51.512;5.386;2023-04-27T06:16:17;76978.06;;;5.31;89.21
64243;BME280;50573;51.512;5.386;2023-04-27T06:26:23;77042.75;;;5.86;87.70
64243;BME280;50573;51.512;5.386;2023-04-27T06:36:26;77092.22;;;6.29;84.44
64243;BME280;50573;51.512;5.386;2023-04-27T06:46:30;77133.63;;;6.63;82.48
64243;BME280;50573;51.512;5.386;2023-04-27T06:56:33;77191.69;;;7.15;81.78
64243;BME280;50573;51.512;5.386;2023-04-27T07:06:38;77253.34;;;7.71;79.99
64243;BME280;50573;51.512;5.386;2023-04-27T07:16:41;77266.00;;;7.85;77.71
64243;BME280;50573;51.512;5.386;2023-04-27T07:26:46;77305.31;;;8.19;75.36
64243;BME280;50573;51.512;5.386;2023-04-27T07:36:50;77350.16;;;8.47;73.60
64243;BME280;50573;51.512;5.386;2023-04-27T07:46:56;77400.34;;;9.01;72.58
64243;BME280;50573;51.512;5.386;2023-04-27T07:57:07;77468.16;;;9.51;72.09
64243;BME280;50573;51.512;5.386;2023-04-27T08:07:11;77461.34;;;9.54;67.03
64243;BME280;50573;51.512;5.386;2023-04-27T08:17:15;77513.78;;;9.91;67.13
64243;BME280;50573;51.512;5.386;2023-04-27T08:27:20;77533.78;;;10.18;60.88
64243;BME280;50573;51.512;5.386;2023-04-27T08:37:23;77558.75;;;10.38;63.31
64243;BME280;50573;51.512;5.386;2023-04-27T08:47:28;77576.00;;;10.55;60.55
64243;BME280;50573;51.512;5.386;2023-04-27T08:57:53;77619.38;;;10.93;55.94
64243;BME280;50573;51.512;5.386;2023-04-27T09:08:00;77621.94;;;11.00;57.32
64243;BME280;50573;51.512;5.386;2023-04-27T09:18:06;77690.16;;;11.56;54.20
64243;BME280;50573;51.512;5.386;2023-04-27T09:28:13;77709.84;;;11.78;52.20
64243;BME280;50573;51.512;5.386;2023-04-27T09:38:17;77726.53;;;11.95;48.20
64243;BME280;50573;51.512;5.386;2023-04-27T09:48:24;77772.97;;;12.28;49.27
64243;BME280;50573;51.512;5.386;2023-04-27T09:59:04;77813.63;;;12.67;46.62
64243;BME280;50573;51.512;5.386;2023-04-27T10:09:13;77859.94;;;13.07;48.57
64243;BME280;50573;51.512;5.386;2023-04-27T10:19:18;77887.22;;;13.29;46.91
64243;BME280;50573;51.512;5.386;2023-04-27T10:29:34;77884.63;;;13.31;44.57
64243;BME280;50573;51.512;5.386;2023-04-27T10:39:39;77856.78;;;13.00;44.89
64243;BME280;50573;51.512;5.386;2023-04-27T10:49:52;77896.22;;;13.34;43.08
64243;BME280;50573;51.512;5.386;2023-04-27T10:59:56;77885.34;;;13.25;42.62
64243;BME280;50573;51.512;5.386;2023-04-27T11:10:00;77857.09;;;13.05;41.90
64243;BME280;50573;51.512;5.386;2023-04-27T11:20:05;77860.34;;;13.05;43.41
64243;BME280;50573;51.512;5.386;2023-04-27T11:30:22;77906.91;;;13.51;41.08
64243;BME280;50573;51.512;5.386;2023-04-27T11:40:26;77934.66;;;13.61;41.31
64243;BME280;50573;51.512;5.386;2023-04-27T11:50:31;77942.66;;;13.77;40.84
64243;BME280;50573;51.512;5.386;2023-04-27T12:00:34;77995.41;;;14.26;37.98
64243;BME280;50573;51.512;5.386;2023-04-27T12:10:39;77972.38;;;14.04;38.16
64243;BME280;50573;51.512;5.386;2023-04-27T12:20:42;78003.69;;;14.29;38.47
64243;BME280;50573;51.512;5.386;2023-04-27T12:30:47;77975.38;;;14.09;37.06
64243;BME280;50573;51.512;5.386;2023-04-27T12:40:50;78055.44;;;14.79;37.42
64243;BME280;50573;51.512;5.386;2023-04-27T12:50:55;78069.59;;;14.89;39.04
64243;BME280;50573;51.512;5.386;2023-04-27T13:00:58;78098.22;;;15.14;37.72
64243;BME280;50573;51.512;5.386;2023-04-27T13:11:03;78126.97;;;15.42;38.35
64243;BME280;50573;51.512;5.386;2023-04-27T13:21:06;78122.78;;;15.36;37.66
64243;BME280;50573;51.512;5.386;2023-04-27T13:31:11;78152.72;;;15.64;37.20
64243;BME280;50573;51.512;5.386;2023-04-27T13:41:14;78147.28;;;15.55;35.79
64243;BME280;50573;51.512;5.386;2023-04-27T13:51:18;78208.91;;;16.16;35.60
64243;BME280;50573;51.512;5.386;2023-04-27T14:01:21;78206.47;;;16.11;35.58
64243;BME280;50573;51.512;5.386;2023-04-27T14:11:26;78144.81;;;15.60;35.58
64243;BME280;50573;51.512;5.386;2023-04-27T14:21:29;78249.44;;;16.49;35.89
64243;BME280;50573;51.512;5.386;2023-04-27T14:31:34;78218.63;;;16.24;35.56
64243;BME280;50573;51.512;5.386;2023-04-27T14:41:37;78234.97;;;16.34;36.78
64243;BME280;50573;51.512;5.386;2023-04-27T14:51:42;78227.06;;;16.29;34.21
64243;BME280;50573;51.512;5.386;2023-04-27T15:01:44;78217.47;;;16.23;35.71
64243;BME280;50573;51.512;5.386;2023-04-27T15:11:49;78217.38;;;16.21;35.57
64243;BME280;50573;51.512;5.386;2023-04-27T15:21:52;78104.75;;;15.24;35.83
64243;BME280;50573;51.512;5.386;2023-04-27T15:31:58;78116.78;;;15.35;36.63
64243;BME280;50573;51.512;5.386;2023-04-27T15:42:02;78103.47;;;15.21;36.95
64243;BME280;50573;51.512;5.386;2023-04-27T15:52:07;78051.56;;;14.78;38.09
64243;BME280;50573;51.512;5.386;2023-04-27T16:02:11;78057.59;;;14.78;39.09
64243;BME280;50573;51.512;5.386;2023-04-27T16:12:16;78048.69;;;14.75;37.02
64243;BME280;50573;51.512;5.386;2023-04-27T16:22:20;78048.31;;;14.68;37.11
64243;BME280;50573;51.512;5.386;2023-04-27T16:32:25;78020.44;;;14.46;38.45
64243;BME280;50573;51.512;5.386;2023-04-27T16:42:29;78003.97;;;14.34;38.20
64243;BME280;50573;51.512;5.386;2023-04-27T16:52:33;77998.84;;;14.29;38.90
64243;BME280;50573;51.512;5.386;2023-04-27T17:02:37;77981.06;;;14.14;39.04
64243;BME280;50573;51.512;5.386;2023-04-27T17:12:45;77950.91;;;13.89;39.99
64243;BME280;50573;51.512;5.386;2023-04-27T17:22:48;77936.06;;;13.76;39.99
64243;BME280;50573;51.512;5.386;2023-04-27T17:32:53;77924.94;;;13.52;39.73
64243;BME280;50573;51.512;5.386;2023-04-27T17:42:56;77892.38;;;13.33;42.21
64243;BME280;50573;51.512;5.386;2023-04-27T17:53:02;77887.34;;;13.31;42.09
64243;BME280;50573;51.512;5.386;2023-04-27T18:03:05;77883.78;;;13.16;41.53
64243;BME280;50573;51.512;5.386;2023-04-27T18:13:10;77864.94;;;13.09;44.21
64243;BME280;50573;51.512;5.386;2023-04-27T18:23:13;77845.47;;;12.92;47.81
64243;BME280;50573;51.512;5.386;2023-04-27T18:33:17;77827.78;;;12.77;49.03
64243;BME280;50573;51.512;5.386;2023-04-27T18:43:21;77796.66;;;12.54;49.45
64243;BME280;50573;51.512;5.386;2023-04-27T18:53:26;77789.50;;;12.43;50.55
64243;BME280;50573;51.512;5.386;2023-04-27T19:03:29;77762.81;;;12.22;51.26
64243;BME280;50573;51.512;5.386;2023-04-27T19:13:34;77750.69;;;12.09;52.03
64243;BME280;50573;51.512;5.386;2023-04-27T19:23:37;77735.69;;;11.93;53.29
64243;BME280;50573;51.512;5.386;2023-04-27T19:33:42;77727.41;;;11.91;53.59
64243;BME280;50573;51.512;5.386;2023-04-27T19:43:55;77711.28;;;11.74;53.47
64243;BME280;50573;51.512;5.386;2023-04-27T19:54:00;77695.28;;;11.60;54.71
64243;BME280;50573;51.512;5.386;2023-04-27T20:04:03;77690.69;;;11.56;55.29
64243;BME280;50573;51.512;5.386;2023-04-27T20:14:08;77698.69;;;11.54;54.36
64243;BME280;50573;51.512;5.386;2023-04-27T20:24:11;77693.56;;;11.49;54.12
64243;BME280;50573;51.512;5.386;2023-04-27T20:34:16;77677.16;;;11.47;55.65
64243;BME280;50573;51.512;5.386;2023-04-27T20:44:19;77680.44;;;11.38;55.82
64243;BME280;50573;51.512;5.386;2023-04-27T20:54:24;77677.56;;;11.35;56.00
64243;BME280;50573;51.512;5.386;2023-04-27T21:04:27;77651.88;;;11.22;57.47
64243;BME280;50573;51.512;5.386;2023-04-27T21:14:32;77635.91;;;11.08;57.76
64243;BME280;50573;51.512;5.386;2023-04-27T21:24:35;77630.78;;;11.03;57.07
64243;BME280;50573;51.512;5.386;2023-04-27T21:34:39;77625.06;;;10.98;55.45
64243;BME280;50573;51.512;5.386;2023-04-27T21:44:42;77629.22;;;11.04;56.91
64243;BME280;50573;51.512;5.386;2023-04-27T21:54:47;77584.88;;;10.68;57.69
64243;BME280;50573;51.512;5.386;2023-04-27T22:04:50;77593.84;;;10.73;58.50
64243;BME280;50573;51.512;5.386;2023-04-27T22:14:55;77578.56;;;10.62;61.27
64243;BME280;50573;51.512;5.386;2023-04-27T22:24:58;77568.56;;;10.39;64.24
64243;BME280;50573;51.512;5.386;2023-04-27T22:35:03;77555.91;;;10.35;63.95
64243;BME280;50573;51.512;5.386;2023-04-27T22:45:13;77552.03;;;10.34;63.49
64243;BME280;50573;51.512;5.386;2023-04-27T22:55:18;77565.31;;;10.39;64.07
64243;BME280;50573;51.512;5.386;2023-04-27T23:05:22;77538.91;;;10.13;66.08
64243;BME280;50573;51.512;5.386;2023-04-27T23:15:26;77537.75;;;10.12;66.37
64243;BME280;50573;51.512;5.386;2023-04-27T23:25:30;77509.22;;;9.87;67.44
64243;BME280;50573;51.512;5.386;2023-04-27T23:35:35;77479.19;;;9.72;71.06
64243;BME280;50573;51.512;5.386;2023-04-27T23:45:38;77453.94;;;9.48;73.94
64243;BME280;50573;51.512;5.386;2023-04-27T23:55:42;77453.91;;;9.38;76.60
